This is the latest recevied weather packets stored in our database for station/object K7AEL. If no packets are shown the sender has not sent any weather packets the latest 10 day(s).
| Time | Temp. | Humidity | Pressure | Rain* | Wind** | Luminosity | Snow |
|---|---|---|---|---|---|---|---|
| 1777423508 | 27.78° C | 14% | 1015 hPa | 0 mm | - | 67 W/m² | - |
| 1777423203 | 27.78° C | 14% | 1014.9 hPa | 0 mm | - | 75 W/m² | - |
| 1777422896 | 27.78° C | 14% | 1014.8 hPa | 0 mm | - | 87 W/m² | - |
| 1777422593 | 27.78° C | 14% | 1014.9 hPa | 0 mm | - | 96 W/m² | - |
| 1777422289 | 28.33° C | 14% | 1014.9 hPa | 0 mm | - | 90 W/m² | - |
| 1777421983 | 28.33° C | 13% | 1014.7 hPa | 0 mm | - | 100 W/m² | - |
| 1777421678 | 28.33° C | 13% | 1014.7 hPa | 0 mm | - | 106 W/m² | - |
| 1777421373 | 28.89° C | 13% | 1014.8 hPa | 0 mm | - | 112 W/m² | - |
| 1777421070 | 29.44° C | 13% | 1014.4 hPa | 0 mm | - | 224 W/m² | - |
| 1777420767 | 28.89° C | 14% | 1014.5 hPa | 0 mm | - | 208 W/m² | - |
| 1777420463 | 28.89° C | 13% | 1014.5 hPa | 0 mm | - | 161 W/m² | - |
| 1777420160 | 28.89° C | 13% | 1014.4 hPa | 0 mm | - | 198 W/m² | - |
| 1777419855 | 28.33° C | 14% | 1014.3 hPa | 0 mm | - | 186 W/m² | - |
| 1777419553 | 28.89° C | 13% | 1014.5 hPa | 0 mm | - | 143 W/m² | - |
| 1777419252 | 28.89° C | 13% | 1014.5 hPa | 0 mm | - | 160 W/m² | - |
| 1777418949 | 28.89° C | 13% | 1014.4 hPa | 0 mm | - | 166 W/m² | - |
| 1777418644 | 28.33° C | 13% | 1014.5 hPa | 0 mm | - | 185 W/m² | - |
| 1777418341 | 28.89° C | 13% | 1014.7 hPa | 0 mm | - | 175 W/m² | - |
| 1777418036 | 28.89° C | 13% | 1014.7 hPa | 0 mm | - | 163 W/m² | - |
| 1777417732 | 28.89° C | 13% | 1014.5 hPa | 0 mm | - | 175 W/m² | - |
| 1777417428 | 28.89° C | 12% | 1014.8 hPa | 0 mm | - | 188 W/m² | - |
| 1777417125 | 29.44° C | 12% | 1014.8 hPa | 0 mm | - | 225 W/m² | - |
| 1777416820 | 29.44° C | 12% | 1014.8 hPa | 0 mm | - | 284 W/m² | - |
| 1777416515 | 29.44° C | 12% | 1014.7 hPa | 0 mm | - | 286 W/m² | - |
| 1777416212 | 29.44° C | 13% | 1014.9 hPa | 0 mm | - | 262 W/m² | - |
* Rain latest hour (hover to see other rain measurements)
** Current wind speed in m/s (hover to see current wind gust speed)